Allenstown, New Hampshire
Current Conditions -  °F | °C
As of 8:51 AM on Saturday 22 Nov 2014 (Local Time) from KCON Reporting Station
Scattered Clouds Scattered Clouds  
Wind Chill: 24°   Ceiling: Unl
Heat Index: 24°   Visibility: 10mi
Dew Point: 15°   Wind: 0mph
Humidity: 69%   Direction: NA
Pressure: 30.34"   Gusts: NA
Location:  43.1606°N, 71.4143°W
Report Text: KCON 221351Z AUTO 00000KT 10SM SCT110 M04/M09 A3034 RMK AO2 SLP279 T10441094
Loading
Personal Weather Stations






























Interactive Weather Map New forecast layout! Learn more

10-Day Weather Forecast

Advertisements
Track Severe Weather on mobile